sensor_id;sensor_type;location;lat;lon;timestamp;pressure;altitude;pressure_sealevel;temperature;humidity
76260;BME280;65076;52.362;6.588;2022-11-15T00:01:18;100900.28;;;10.39;71.42
76260;BME280;65076;52.362;6.588;2022-11-15T00:03:46;100884.06;;;10.77;70.16
76260;BME280;65076;52.362;6.588;2022-11-15T00:06:18;100883.47;;;10.70;69.65
76260;BME280;65076;52.362;6.588;2022-11-15T00:08:46;100882.16;;;10.60;70.74
76260;BME280;65076;52.362;6.588;2022-11-15T00:11:15;100893.78;;;10.62;70.74
76260;BME280;65076;52.362;6.588;2022-11-15T00:13:43;100895.63;;;10.61;72.07
76260;BME280;65076;52.362;6.588;2022-11-15T00:16:11;100898.31;;;10.61;72.61
76260;BME280;65076;52.362;6.588;2022-11-15T00:18:38;100891.75;;;10.67;72.75
76260;BME280;65076;52.362;6.588;2022-11-15T00:21:13;100891.44;;;10.54;73.71
76260;BME280;65076;52.362;6.588;2022-11-15T00:23:41;100883.81;;;10.62;73.77
76260;BME280;65076;52.362;6.588;2022-11-15T00:26:11;100878.56;;;10.41;73.99
76260;BME280;65076;52.362;6.588;2022-11-15T00:28:42;100880.78;;;10.51;74.16
76260;BME280;65076;52.362;6.588;2022-11-15T00:31:12;100881.59;;;9.94;76.47
76260;BME280;65076;52.362;6.588;2022-11-15T00:33:43;100878.53;;;10.02;76.18
76260;BME280;65076;52.362;6.588;2022-11-15T00:36:11;100880.97;;;10.08;76.64
76260;BME280;65076;52.362;6.588;2022-11-15T00:38:39;100883.34;;;9.95;76.64
76260;BME280;65076;52.362;6.588;2022-11-15T00:41:08;100879.69;;;10.16;76.72
76260;BME280;65076;52.362;6.588;2022-11-15T00:43:37;100877.97;;;10.34;75.76
76260;BME280;65076;52.362;6.588;2022-11-15T00:46:07;100869.34;;;10.45;75.02
76260;BME280;65076;52.362;6.588;2022-11-15T00:48:36;100878.69;;;10.38;75.56
76260;BME280;65076;52.362;6.588;2022-11-15T00:51:04;100861.81;;;10.33;75.99
76260;BME280;65076;52.362;6.588;2022-11-15T00:53:32;100871.63;;;10.35;76.36
76260;BME280;65076;52.362;6.588;2022-11-15T00:56:00;100874.63;;;10.09;76.55
76260;BME280;65076;52.362;6.588;2022-11-15T00:58:28;100870.69;;;10.16;76.72
76260;BME280;65076;52.362;6.588;2022-11-15T01:00:56;100864.69;;;10.09;76.77
76260;BME280;65076;52.362;6.588;2022-11-15T01:03:25;100861.38;;;10.23;77.11
76260;BME280;65076;52.362;6.588;2022-11-15T01:05:53;100859.84;;;10.36;76.90
76260;BME280;65076;52.362;6.588;2022-11-15T01:08:21;100855.84;;;10.45;76.08
76260;BME280;65076;52.362;6.588;2022-11-15T01:10:51;100855.41;;;10.15;77.53
76260;BME280;65076;52.362;6.588;2022-11-15T01:13:19;100844.34;;;10.58;75.74
76260;BME280;65076;52.362;6.588;2022-11-15T01:15:47;100846.47;;;10.33;76.45
76260;BME280;65076;52.362;6.588;2022-11-15T01:18:14;100843.69;;;10.53;76.22
76260;BME280;65076;52.362;6.588;2022-11-15T01:20:44;100839.38;;;10.49;76.60
76260;BME280;65076;52.362;6.588;2022-11-15T01:23:11;100834.00;;;10.85;76.06
76260;BME280;65076;52.362;6.588;2022-11-15T01:25:39;100835.03;;;10.64;76.77
76260;BME280;65076;52.362;6.588;2022-11-15T01:28:07;100835.03;;;10.83;76.18
76260;BME280;65076;52.362;6.588;2022-11-15T01:30:36;100827.22;;;10.77;76.81
76260;BME280;65076;52.362;6.588;2022-11-15T01:33:03;100837.22;;;10.75;76.84
76260;BME280;65076;52.362;6.588;2022-11-15T01:35:31;100826.94;;;10.83;76.64
76260;BME280;65076;52.362;6.588;2022-11-15T01:38:01;100823.34;;;10.82;76.99
76260;BME280;65076;52.362;6.588;2022-11-15T01:40:28;100819.56;;;10.68;77.74
76260;BME280;65076;52.362;6.588;2022-11-15T01:42:56;100817.69;;;10.87;77.22
76260;BME280;65076;52.362;6.588;2022-11-15T01:45:24;100813.81;;;10.74;77.47
76260;BME280;65076;52.362;6.588;2022-11-15T01:47:53;100814.03;;;11.05;77.23
76260;BME280;65076;52.362;6.588;2022-11-15T01:50:25;100815.88;;;10.87;77.86
76260;BME280;65076;52.362;6.588;2022-11-15T01:52:56;100817.28;;;10.58;78.85
76260;BME280;65076;52.362;6.588;2022-11-15T01:55:26;100817.34;;;10.76;78.58
76260;BME280;65076;52.362;6.588;2022-11-15T01:57:58;100810.09;;;10.76;79.18
76260;BME280;65076;52.362;6.588;2022-11-15T02:00:29;100803.63;;;10.97;78.05
76260;BME280;65076;52.362;6.588;2022-11-15T02:02:57;100808.63;;;10.88;78.08
76260;BME280;65076;52.362;6.588;2022-11-15T02:05:26;100803.56;;;10.44;79.04
76260;BME280;65076;52.362;6.588;2022-11-15T02:07:54;100799.38;;;10.92;79.07
76260;BME280;65076;52.362;6.588;2022-11-15T02:10:23;100790.72;;;11.02;78.69
76260;BME280;65076;52.362;6.588;2022-11-15T02:12:53;100800.91;;;10.97;79.37
76260;BME280;65076;52.362;6.588;2022-11-15T02:15:29;100787.78;;;11.07;79.31
76260;BME280;65076;52.362;6.588;2022-11-15T02:18:11;100780.94;;;11.17;78.79
76260;BME280;65076;52.362;6.588;2022-11-15T02:20:56;100778.72;;;11.08;79.79
76260;BME280;65076;52.362;6.588;2022-11-15T02:24:00;100791.34;;;10.90;79.67
76260;BME280;65076;52.362;6.588;2022-11-15T02:27:11;100787.91;;;10.87;80.53
76260;BME280;65076;52.362;6.588;2022-11-15T02:30:04;100789.38;;;11.11;80.21
76260;BME280;65076;52.362;6.588;2022-11-15T02:33:01;100785.22;;;11.21;79.05
76260;BME280;65076;52.362;6.588;2022-11-15T02:35:39;100791.47;;;11.23;79.20
76260;BME280;65076;52.362;6.588;2022-11-15T02:38:19;100792.66;;;11.35;79.28
76260;BME280;65076;52.362;6.588;2022-11-15T02:40:58;100781.47;;;11.41;79.41
76260;BME280;65076;52.362;6.588;2022-11-15T02:43:35;100781.19;;;11.30;79.07
76260;BME280;65076;52.362;6.588;2022-11-15T02:46:30;100786.81;;;11.25;79.75
76260;BME280;65076;52.362;6.588;2022-11-15T02:49:21;100782.75;;;11.51;79.85
76260;BME280;65076;52.362;6.588;2022-11-15T02:51:52;100784.84;;;11.46;79.79
76260;BME280;65076;52.362;6.588;2022-11-15T02:54:24;100782.19;;;11.62;79.30
76260;BME280;65076;52.362;6.588;2022-11-15T02:56:58;100788.66;;;11.42;80.04
76260;BME280;65076;52.362;6.588;2022-11-15T03:02:36;100776.53;;;11.66;79.70
76260;BME280;65076;52.362;6.588;2022-11-15T03:05:21;100764.41;;;11.73;79.10
76260;BME280;65076;52.362;6.588;2022-11-15T03:08:02;100767.19;;;11.72;78.97
76260;BME280;65076;52.362;6.588;2022-11-15T03:10:43;100764.81;;;11.99;78.74
76260;BME280;65076;52.362;6.588;2022-11-15T03:13:25;100764.31;;;12.08;78.13
76260;BME280;65076;52.362;6.588;2022-11-15T03:16:02;100760.34;;;11.65;79.21
76260;BME280;65076;52.362;6.588;2022-11-15T03:18:33;100758.19;;;11.71;79.10
76260;BME280;65076;52.362;6.588;2022-11-15T03:21:08;100752.53;;;11.59;80.11
76260;BME280;65076;52.362;6.588;2022-11-15T03:23:39;100750.44;;;11.81;79.90
76260;BME280;65076;52.362;6.588;2022-11-15T03:26:10;100750.41;;;11.98;79.26
76260;BME280;65076;52.362;6.588;2022-11-15T03:28:45;100742.16;;;12.00;79.00
76260;BME280;65076;52.362;6.588;2022-11-15T03:31:19;100737.81;;;11.97;79.41
76260;BME280;65076;52.362;6.588;2022-11-15T03:34:22;100729.22;;;12.20;78.61
76260;BME280;65076;52.362;6.588;2022-11-15T03:36:56;100732.75;;;12.22;78.85
76260;BME280;65076;52.362;6.588;2022-11-15T03:39:25;100736.69;;;12.32;78.77
76260;BME280;65076;52.362;6.588;2022-11-15T03:42:04;100740.00;;;12.38;78.11
76260;BME280;65076;52.362;6.588;2022-11-15T03:44:44;100733.00;;;12.34;77.75
76260;BME280;65076;52.362;6.588;2022-11-15T03:47:21;100739.56;;;12.77;77.25
76260;BME280;65076;52.362;6.588;2022-11-15T03:49:58;100740.19;;;12.66;77.22
76260;BME280;65076;52.362;6.588;2022-11-15T03:52:32;100736.31;;;12.70;76.91
76260;BME280;65076;52.362;6.588;2022-11-15T03:55:03;100748.81;;;12.72;76.86
76260;BME280;65076;52.362;6.588;2022-11-15T03:57:33;100739.13;;;12.53;77.50
76260;BME280;65076;52.362;6.588;2022-11-15T04:00:02;100732.81;;;12.52;76.78
76260;BME280;65076;52.362;6.588;2022-11-15T04:02:31;100724.78;;;12.35;77.98
76260;BME280;65076;52.362;6.588;2022-11-15T04:04:59;100716.53;;;12.52;78.15
76260;BME280;65076;52.362;6.588;2022-11-15T04:07:26;100729.69;;;12.28;78.36
76260;BME280;65076;52.362;6.588;2022-11-15T04:09:56;100730.91;;;12.54;78.36
76260;BME280;65076;52.362;6.588;2022-11-15T04:12:30;100720.66;;;12.44;78.45
76260;BME280;65076;52.362;6.588;2022-11-15T04:15:00;100725.00;;;12.62;78.39
76260;BME280;65076;52.362;6.588;2022-11-15T04:17:37;100738.94;;;12.71;77.74
76260;BME280;65076;52.362;6.588;2022-11-15T04:20:09;100742.00;;;12.81;77.91
76260;BME280;65076;52.362;6.588;2022-11-15T04:22:57;100736.97;;;12.89;76.96
76260;BME280;65076;52.362;6.588;2022-11-15T04:25:44;100732.84;;;12.98;76.59
76260;BME280;65076;52.362;6.588;2022-11-15T04:28:14;100727.91;;;13.04;76.96
76260;BME280;65076;52.362;6.588;2022-11-15T04:30:42;100725.88;;;13.08;76.71
76260;BME280;65076;52.362;6.588;2022-11-15T04:33:09;100731.31;;;13.08;76.41
76260;BME280;65076;52.362;6.588;2022-11-15T04:35:37;100738.91;;;12.87;76.86
76260;BME280;65076;52.362;6.588;2022-11-15T04:38:07;100735.28;;;13.02;76.90
76260;BME280;65076;52.362;6.588;2022-11-15T04:40:35;100741.63;;;12.87;77.10
76260;BME280;65076;52.362;6.588;2022-11-15T04:43:05;100747.19;;;13.15;76.31
76260;BME280;65076;52.362;6.588;2022-11-15T04:45:33;100748.38;;;12.80;77.23
76260;BME280;65076;52.362;6.588;2022-11-15T04:48:01;100752.53;;;13.01;76.95
76260;BME280;65076;52.362;6.588;2022-11-15T04:50:28;100750.69;;;13.02;76.61
76260;BME280;65076;52.362;6.588;2022-11-15T04:52:56;100753.28;;;12.73;77.66
76260;BME280;65076;52.362;6.588;2022-11-15T04:55:24;100753.63;;;12.83;77.73
76260;BME280;65076;52.362;6.588;2022-11-15T04:57:59;100745.16;;;13.03;77.57
76260;BME280;65076;52.362;6.588;2022-11-15T05:00:29;100753.41;;;13.18;77.19
76260;BME280;65076;52.362;6.588;2022-11-15T05:02:57;100754.31;;;13.32;76.16
76260;BME280;65076;52.362;6.588;2022-11-15T05:05:54;100747.03;;;13.33;76.39
76260;BME280;65076;52.362;6.588;2022-11-15T05:08:22;100754.69;;;13.26;76.22
76260;BME280;65076;52.362;6.588;2022-11-15T05:10:49;100753.09;;;13.66;75.78
76260;BME280;65076;52.362;6.588;2022-11-15T05:13:17;100744.41;;;13.45;75.46
76260;BME280;65076;52.362;6.588;2022-11-15T05:15:47;100745.66;;;13.40;76.02
76260;BME280;65076;52.362;6.588;2022-11-15T05:18:15;100732.38;;;13.05;76.27
76260;BME280;65076;52.362;6.588;2022-11-15T05:20:48;100742.06;;;13.25;77.39
76260;BME280;65076;52.362;6.588;2022-11-15T05:23:16;100733.09;;;13.53;76.16
76260;BME280;65076;52.362;6.588;2022-11-15T05:25:44;100734.56;;;13.58;76.03
76260;BME280;65076;52.362;6.588;2022-11-15T05:28:12;100734.13;;;13.06;77.39
76260;BME280;65076;52.362;6.588;2022-11-15T05:30:40;100731.25;;;13.53;76.32
76260;BME280;65076;52.362;6.588;2022-11-15T05:33:09;100722.06;;;13.26;77.28
76260;BME280;65076;52.362;6.588;2022-11-15T05:35:42;100728.97;;;13.32;77.11
76260;BME280;65076;52.362;6.588;2022-11-15T05:38:16;100723.59;;;13.16;78.09
76260;BME280;65076;52.362;6.588;2022-11-15T05:40:45;100736.31;;;13.15;77.37
76260;BME280;65076;52.362;6.588;2022-11-15T05:43:13;100716.13;;;13.20;78.26
76260;BME280;65076;52.362;6.588;2022-11-15T05:45:41;100723.75;;;13.29;77.39
76260;BME280;65076;52.362;6.588;2022-11-15T05:48:10;100725.81;;;13.39;77.19
76260;BME280;65076;52.362;6.588;2022-11-15T05:50:39;100719.13;;;13.59;76.44
76260;BME280;65076;52.362;6.588;2022-11-15T05:53:16;100716.72;;;13.25;77.72
76260;BME280;65076;52.362;6.588;2022-11-15T05:55:48;100716.78;;;13.39;77.68
76260;BME280;65076;52.362;6.588;2022-11-15T05:58:16;100723.69;;;13.58;76.79
76260;BME280;65076;52.362;6.588;2022-11-15T06:00:45;100717.06;;;13.63;76.79
76260;BME280;65076;52.362;6.588;2022-11-15T06:03:15;100722.22;;;13.95;75.93
76260;BME280;65076;52.362;6.588;2022-11-15T06:05:43;100726.91;;;13.65;76.86
76260;BME280;65076;52.362;6.588;2022-11-15T06:08:10;100733.59;;;13.74;76.05
76260;BME280;65076;52.362;6.588;2022-11-15T06:10:38;100729.41;;;13.68;76.25
76260;BME280;65076;52.362;6.588;2022-11-15T06:13:06;100729.41;;;13.96;76.16
76260;BME280;65076;52.362;6.588;2022-11-15T06:15:34;100733.69;;;14.00;75.66
76260;BME280;65076;52.362;6.588;2022-11-15T06:18:02;100742.25;;;13.80;75.97
76260;BME280;65076;52.362;6.588;2022-11-15T06:20:31;100734.84;;;13.96;76.06
76260;BME280;65076;52.362;6.588;2022-11-15T06:23:00;100728.06;;;13.89;76.60
76260;BME280;65076;52.362;6.588;2022-11-15T06:25:29;100730.38;;;13.67;76.29
76260;BME280;65076;52.362;6.588;2022-11-15T06:27:58;100738.44;;;14.11;76.23
76260;BME280;65076;52.362;6.588;2022-11-15T06:30:26;100738.72;;;13.64;77.38
76260;BME280;65076;52.362;6.588;2022-11-15T06:33:01;100739.59;;;13.79;76.86
76260;BME280;65076;52.362;6.588;2022-11-15T06:35:33;100737.56;;;13.68;77.89
76260;BME280;65076;52.362;6.588;2022-11-15T06:38:03;100742.72;;;13.73;77.12
76260;BME280;65076;52.362;6.588;2022-11-15T06:40:33;100745.91;;;13.93;77.27
76260;BME280;65076;52.362;6.588;2022-11-15T06:43:03;100747.28;;;14.00;77.40
76260;BME280;65076;52.362;6.588;2022-11-15T06:45:31;100752.63;;;13.88;77.41
76260;BME280;65076;52.362;6.588;2022-11-15T06:47:59;100756.03;;;13.91;77.70
76260;BME280;65076;52.362;6.588;2022-11-15T06:50:27;100759.81;;;14.03;77.80
76260;BME280;65076;52.362;6.588;2022-11-15T06:53:00;100759.00;;;14.29;77.00
76260;BME280;65076;52.362;6.588;2022-11-15T06:55:29;100760.28;;;14.10;78.22
76260;BME280;65076;52.362;6.588;2022-11-15T06:57:57;100766.13;;;14.18;78.14
76260;BME280;65076;52.362;6.588;2022-11-15T07:00:25;100771.72;;;14.29;76.84
76260;BME280;65076;52.362;6.588;2022-11-15T07:02:52;100773.41;;;14.17;77.57
76260;BME280;65076;52.362;6.588;2022-11-15T07:05:20;100779.66;;;13.91;78.50
76260;BME280;65076;52.362;6.588;2022-11-15T07:07:52;100782.75;;;13.99;78.73
76260;BME280;65076;52.362;6.588;2022-11-15T07:10:22;100786.78;;;14.34;77.93
76260;BME280;65076;52.362;6.588;2022-11-15T07:12:51;100774.88;;;14.37;77.02
76260;BME280;65076;52.362;6.588;2022-11-15T07:15:22;100778.06;;;14.29;77.80
76260;BME280;65076;52.362;6.588;2022-11-15T07:17:51;100786.34;;;13.85;78.76
76260;BME280;65076;52.362;6.588;2022-11-15T07:20:19;100778.25;;;14.26;78.71
76260;BME280;65076;52.362;6.588;2022-11-15T07:22:47;100780.31;;;14.09;79.14
76260;BME280;65076;52.362;6.588;2022-11-15T07:25:16;100775.19;;;14.18;78.74
76260;BME280;65076;52.362;6.588;2022-11-15T07:27:54;100781.97;;;14.39;78.31
76260;BME280;65076;52.362;6.588;2022-11-15T07:30:22;100784.31;;;14.17;78.95
76260;BME280;65076;52.362;6.588;2022-11-15T07:32:52;100779.16;;;13.98;79.02
76260;BME280;65076;52.362;6.588;2022-11-15T07:35:20;100777.59;;;14.09;79.41
76260;BME280;65076;52.362;6.588;2022-11-15T07:37:55;100772.06;;;14.10;78.90
76260;BME280;65076;52.362;6.588;2022-11-15T07:40:24;100777.47;;;14.24;79.36
76260;BME280;65076;52.362;6.588;2022-11-15T07:43:00;100773.41;;;14.17;79.50
76260;BME280;65076;52.362;6.588;2022-11-15T07:45:28;100783.91;;;14.23;79.62
76260;BME280;65076;52.362;6.588;2022-11-15T07:47:56;100781.47;;;14.19;79.63
76260;BME280;65076;52.362;6.588;2022-11-15T07:50:24;100784.97;;;14.21;79.78
76260;BME280;65076;52.362;6.588;2022-11-15T07:52:53;100779.06;;;14.28;79.18
76260;BME280;65076;52.362;6.588;2022-11-15T07:55:22;100787.69;;;14.21;79.34
76260;BME280;65076;52.362;6.588;2022-11-15T07:57:51;100785.16;;;14.32;79.55
76260;BME280;65076;52.362;6.588;2022-11-15T08:00:20;100786.25;;;14.44;79.36
76260;BME280;65076;52.362;6.588;2022-11-15T08:02:48;100785.94;;;14.34;78.96
76260;BME280;65076;52.362;6.588;2022-11-15T08:05:16;100787.31;;;14.41;79.27
76260;BME280;65076;52.362;6.588;2022-11-15T08:07:43;100782.16;;;14.36;78.88
76260;BME280;65076;52.362;6.588;2022-11-15T08:10:20;100785.38;;;14.15;79.67
76260;BME280;65076;52.362;6.588;2022-11-15T08:12:47;100778.75;;;14.33;79.42
76260;BME280;65076;52.362;6.588;2022-11-15T08:15:15;100774.66;;;14.26;79.35
76260;BME280;65076;52.362;6.588;2022-11-15T08:17:44;100780.09;;;14.26;79.14
76260;BME280;65076;52.362;6.588;2022-11-15T08:20:14;100786.25;;;14.01;80.35
76260;BME280;65076;52.362;6.588;2022-11-15T08:22:42;100778.75;;;14.19;79.66
76260;BME280;65076;52.362;6.588;2022-11-15T08:25:10;100772.25;;;14.07;79.98
76260;BME280;65076;52.362;6.588;2022-11-15T08:27:37;100777.78;;;14.34;79.49
76260;BME280;65076;52.362;6.588;2022-11-15T08:30:06;100776.25;;;14.71;78.25
76260;BME280;65076;52.362;6.588;2022-11-15T08:32:35;100763.41;;;14.73;77.48
76260;BME280;65076;52.362;6.588;2022-11-15T08:35:05;100765.16;;;14.74;78.02
76260;BME280;65076;52.362;6.588;2022-11-15T08:37:34;100762.22;;;14.36;77.57
76260;BME280;65076;52.362;6.588;2022-11-15T08:40:03;100758.41;;;14.53;78.07
76260;BME280;65076;52.362;6.588;2022-11-15T08:42:32;100765.50;;;14.55;78.19
76260;BME280;65076;52.362;6.588;2022-11-15T08:44:59;100760.06;;;14.55;78.49
76260;BME280;65076;52.362;6.588;2022-11-15T08:47:30;100759.28;;;14.53;78.40
76260;BME280;65076;52.362;6.588;2022-11-15T08:49:58;100757.31;;;14.69;77.30
76260;BME280;65076;52.362;6.588;2022-11-15T08:52:27;100750.03;;;14.82;77.59
76260;BME280;65076;52.362;6.588;2022-11-15T08:54:55;100751.56;;;14.87;76.62
76260;BME280;65076;52.362;6.588;2022-11-15T08:57:23;100757.41;;;14.95;76.46
76260;BME280;65076;52.362;6.588;2022-11-15T08:59:51;100757.22;;;14.57;78.22
76260;BME280;65076;52.362;6.588;2022-11-15T09:02:19;100760.66;;;14.32;78.82
76260;BME280;65076;52.362;6.588;2022-11-15T09:04:47;100755.00;;;14.35;79.43
76260;BME280;65076;52.362;6.588;2022-11-15T09:07:15;100763.56;;;14.57;78.61
76260;BME280;65076;52.362;6.588;2022-11-15T09:09:47;100754.72;;;14.39;78.12
76260;BME280;65076;52.362;6.588;2022-11-15T09:12:15;100753.09;;;14.09;79.59
76260;BME280;65076;52.362;6.588;2022-11-15T09:14:43;100754.88;;;13.95;80.03
76260;BME280;65076;52.362;6.588;2022-11-15T09:17:11;100747.47;;;14.12;79.55
76260;BME280;65076;52.362;6.588;2022-11-15T09:19:39;100737.22;;;14.29;78.69
76260;BME280;65076;52.362;6.588;2022-11-15T09:22:07;100753.59;;;14.15;79.24
76260;BME280;65076;52.362;6.588;2022-11-15T09:24:35;100743.28;;;13.78;80.57
76260;BME280;65076;52.362;6.588;2022-11-15T09:27:05;100741.38;;;13.80;81.08
76260;BME280;65076;52.362;6.588;2022-11-15T09:29:33;100737.28;;;13.73;80.88
76260;BME280;65076;52.362;6.588;2022-11-15T09:32:01;100738.25;;;14.00;80.23
76260;BME280;65076;52.362;6.588;2022-11-15T09:34:28;100738.91;;;14.04;80.10
76260;BME280;65076;52.362;6.588;2022-11-15T09:36:56;100744.47;;;13.88;80.35
76260;BME280;65076;52.362;6.588;2022-11-15T09:39:24;100746.88;;;13.92;79.92
76260;BME280;65076;52.362;6.588;2022-11-15T09:42:01;100743.47;;;14.31;78.71
76260;BME280;65076;52.362;6.588;2022-11-15T09:44:56;100742.78;;;14.42;78.25
76260;BME280;65076;52.362;6.588;2022-11-15T09:50:51;100758.81;;;14.32;78.12
76260;BME280;65076;52.362;6.588;2022-11-15T09:53:24;100763.03;;;13.95;78.91
76260;BME280;65076;52.362;6.588;2022-11-15T09:56:17;100754.44;;;14.30;77.89
76260;BME280;65076;52.362;6.588;2022-11-15T09:58:56;100756.13;;;14.18;78.31
76260;BME280;65076;52.362;6.588;2022-11-15T10:01:40;100750.16;;;14.54;76.94
76260;BME280;65076;52.362;6.588;2022-11-15T10:04:15;100754.03;;;14.50;76.85
76260;BME280;65076;52.362;6.588;2022-11-15T10:06:49;100749.63;;;14.62;76.32
76260;BME280;65076;52.362;6.588;2022-11-15T10:09:28;100746.41;;;14.96;75.48
76260;BME280;65076;52.362;6.588;2022-11-15T10:12:03;100739.94;;;14.84;74.07
76260;BME280;65076;52.362;6.588;2022-11-15T10:14:33;100742.56;;;14.86;73.75
76260;BME280;65076;52.362;6.588;2022-11-15T10:20:21;100734.69;;;15.21;73.42
76260;BME280;65076;52.362;6.588;2022-11-15T10:22:52;100739.78;;;15.13;71.94
76260;BME280;65076;52.362;6.588;2022-11-15T10:25:25;100733.53;;;14.98;72.21
76260;BME280;65076;52.362;6.588;2022-11-15T10:27:56;100733.31;;;15.28;70.79
76260;BME280;65076;52.362;6.588;2022-11-15T10:30:33;100728.56;;;15.05;70.70
76260;BME280;65076;52.362;6.588;2022-11-15T10:33:25;100726.81;;;14.77;71.90
76260;BME280;65076;52.362;6.588;2022-11-15T10:36:18;100722.69;;;15.23;70.49
76260;BME280;65076;52.362;6.588;2022-11-15T10:38:54;100719.56;;;15.42;70.25
76260;BME280;65076;52.362;6.588;2022-11-15T10:41:34;100719.25;;;15.47;69.69
76260;BME280;65076;52.362;6.588;2022-11-15T10:44:12;100701.78;;;15.87;68.95
76260;BME280;65076;52.362;6.588;2022-11-15T10:46:50;100703.06;;;16.07;67.65
76260;BME280;65076;52.362;6.588;2022-11-15T10:49:53;100691.63;;;16.02;67.26
76260;BME280;65076;52.362;6.588;2022-11-15T10:52:23;100684.47;;;16.25;66.37
76260;BME280;65076;52.362;6.588;2022-11-15T10:54:55;100678.50;;;16.07;66.13
76260;BME280;65076;52.362;6.588;2022-11-15T10:57:28;100672.41;;;16.03;66.37
76260;BME280;65076;52.362;6.588;2022-11-15T11:00:00;100684.13;;;15.93;66.32
76260;BME280;65076;52.362;6.588;2022-11-15T11:02:34;100674.25;;;16.16;65.90
76260;BME280;65076;52.362;6.588;2022-11-15T11:05:06;100670.16;;;15.85;66.72
76260;BME280;65076;52.362;6.588;2022-11-15T11:07:56;100672.56;;;15.77;65.67
76260;BME280;65076;52.362;6.588;2022-11-15T11:10:25;100671.25;;;16.55;64.41
76260;BME280;65076;52.362;6.588;2022-11-15T11:13:14;100675.25;;;16.38;64.28
76260;BME280;65076;52.362;6.588;2022-11-15T11:15:51;100670.06;;;16.23;63.93
76260;BME280;65076;52.362;6.588;2022-11-15T11:18:27;100667.00;;;16.27;65.34
76260;BME280;65076;52.362;6.588;2022-11-15T11:21:05;100664.38;;;16.49;64.07
76260;BME280;65076;52.362;6.588;2022-11-15T11:23:45;100657.00;;;16.15;64.66
76260;BME280;65076;52.362;6.588;2022-11-15T11:26:33;100656.91;;;16.04;65.34
76260;BME280;65076;52.362;6.588;2022-11-15T11:29:19;100664.28;;;16.51;63.69
76260;BME280;65076;52.362;6.588;2022-11-15T11:32:01;100659.78;;;16.63;63.59
76260;BME280;65076;52.362;6.588;2022-11-15T11:34:45;100651.69;;;16.37;63.03
76260;BME280;65076;52.362;6.588;2022-11-15T11:37:28;100648.31;;;16.58;62.79
76260;BME280;65076;52.362;6.588;2022-11-15T11:40:16;100634.31;;;16.62;60.85
76260;BME280;65076;52.362;6.588;2022-11-15T11:42:54;100629.00;;;16.72;61.25
76260;BME280;65076;52.362;6.588;2022-11-15T11:45:44;100635.63;;;16.57;60.50
76260;BME280;65076;52.362;6.588;2022-11-15T11:48:30;100626.13;;;16.62;61.49
76260;BME280;65076;52.362;6.588;2022-11-15T11:51:15;100617.84;;;16.75;59.51
76260;BME280;65076;52.362;6.588;2022-11-15T11:53:52;100625.91;;;16.29;62.49
76260;BME280;65076;52.362;6.588;2022-11-15T11:56:27;100621.50;;;16.15;60.43
76260;BME280;65076;52.362;6.588;2022-11-15T11:59:01;100621.91;;;16.45;58.17
76260;BME280;65076;52.362;6.588;2022-11-15T12:01:39;100623.13;;;16.18;59.68
76260;BME280;65076;52.362;6.588;2022-11-15T12:04:14;100623.25;;;16.40;58.16
76260;BME280;65076;52.362;6.588;2022-11-15T12:06:50;100624.69;;;16.09;59.55
76260;BME280;65076;52.362;6.588;2022-11-15T12:09:29;100618.34;;;16.08;58.44
76260;BME280;65076;52.362;6.588;2022-11-15T12:12:06;100627.63;;;16.42;57.56
76260;BME280;65076;52.362;6.588;2022-11-15T12:14:42;100621.09;;;16.56;56.23
76260;BME280;65076;52.362;6.588;2022-11-15T12:17:17;100618.69;;;16.64;56.57
76260;BME280;65076;52.362;6.588;2022-11-15T12:19:51;100619.69;;;16.50;55.93
76260;BME280;65076;52.362;6.588;2022-11-15T12:22:32;100614.31;;;16.62;55.98
76260;BME280;65076;52.362;6.588;2022-11-15T12:25:13;100610.94;;;16.34;55.62
76260;BME280;65076;52.362;6.588;2022-11-15T12:27:50;100608.31;;;16.57;55.36
76260;BME280;65076;52.362;6.588;2022-11-15T12:30:22;100603.03;;;16.42;55.13
76260;BME280;65076;52.362;6.588;2022-11-15T12:32:55;100605.19;;;16.26;55.31
76260;BME280;65076;52.362;6.588;2022-11-15T12:35:32;100611.28;;;16.30;56.32
76260;BME280;65076;52.362;6.588;2022-11-15T12:38:09;100600.16;;;16.33;54.25
76260;BME280;65076;52.362;6.588;2022-11-15T12:43:45;100596.47;;;16.69;54.46
76260;BME280;65076;52.362;6.588;2022-11-15T12:46:21;100594.53;;;16.34;54.59
76260;BME280;65076;52.362;6.588;2022-11-15T12:49:16;100593.16;;;16.52;54.85
76260;BME280;65076;52.362;6.588;2022-11-15T12:52:13;100579.88;;;16.83;53.45
76260;BME280;65076;52.362;6.588;2022-11-15T12:55:01;100586.88;;;17.09;53.55
76260;BME280;65076;52.362;6.588;2022-11-15T12:57:51;100577.59;;;17.45;53.21
76260;BME280;65076;52.362;6.588;2022-11-15T13:00:43;100574.13;;;17.21;53.10
76260;BME280;65076;52.362;6.588;2022-11-15T13:03:28;100558.06;;;17.50;52.06
76260;BME280;65076;52.362;6.588;2022-11-15T13:06:34;100558.06;;;17.94;50.32
76260;BME280;65076;52.362;6.588;2022-11-15T13:12:52;100547.34;;;18.34;50.21
76260;BME280;65076;52.362;6.588;2022-11-15T13:15:46;100531.72;;;18.57;49.30
76260;BME280;65076;52.362;6.588;2022-11-15T13:18:37;100536.19;;;18.26;50.37
76260;BME280;65076;52.362;6.588;2022-11-15T13:21:22;100532.22;;;17.65;52.30
76260;BME280;65076;52.362;6.588;2022-11-15T13:24:13;100529.06;;;17.92;51.05
76260;BME280;65076;52.362;6.588;2022-11-15T13:26:43;100530.28;;;17.99;50.91
76260;BME280;65076;52.362;6.588;2022-11-15T13:29:19;100528.97;;;17.71;51.62
76260;BME280;65076;52.362;6.588;2022-11-15T13:31:48;100517.56;;;18.09;51.23
76260;BME280;65076;52.362;6.588;2022-11-15T13:34:28;100513.31;;;17.73;52.55
76260;BME280;65076;52.362;6.588;2022-11-15T13:37:30;100508.06;;;17.70;53.22
76260;BME280;65076;52.362;6.588;2022-11-15T13:40:20;100500.13;;;17.45;53.65